sensor_id;sensor_type;location;lat;lon;timestamp;temperature;humidity
20973;DHT22;10645;52.370;13.314;2022-10-12T00:01:48;2.10;99.90
20973;DHT22;10645;52.370;13.314;2022-10-12T00:04:14;2.10;99.90
20973;DHT22;10645;52.370;13.314;2022-10-12T00:06:40;2.10;99.90
20973;DHT22;10645;52.370;13.314;2022-10-12T00:09:06;2.10;99.90
20973;DHT22;10645;52.370;13.314;2022-10-12T00:11:32;2.10;99.90
20973;DHT22;10645;52.370;13.314;2022-10-12T00:13:58;2.20;99.90
20973;DHT22;10645;52.370;13.314;2022-10-12T00:16:25;2.10;99.90
20973;DHT22;10645;52.370;13.314;2022-10-12T00:18:56;2.10;99.90
20973;DHT22;10645;52.370;13.314;2022-10-12T00:21:24;2.00;99.90
20973;DHT22;10645;52.370;13.314;2022-10-12T00:23:50;2.00;99.90
20973;DHT22;10645;52.370;13.314;2022-10-12T00:26:21;2.00;99.90
20973;DHT22;10645;52.370;13.314;2022-10-12T00:28:48;2.00;99.90
20973;DHT22;10645;52.370;13.314;2022-10-12T00:31:16;1.90;99.90
20973;DHT22;10645;52.370;13.314;2022-10-12T00:33:44;1.90;99.90
20973;DHT22;10645;52.370;13.314;2022-10-12T00:36:17;1.90;99.90
20973;DHT22;10645;52.370;13.314;2022-10-12T00:38:44;1.80;99.90
20973;DHT22;10645;52.370;13.314;2022-10-12T00:41:10;1.80;99.90
20973;DHT22;10645;52.370;13.314;2022-10-12T00:43:39;1.80;99.90
20973;DHT22;10645;52.370;13.314;2022-10-12T00:46:36;1.80;99.90
20973;DHT22;10645;52.370;13.314;2022-10-12T00:49:20;1.90;99.90
20973;DHT22;10645;52.370;13.314;2022-10-12T00:51:54;1.90;99.90
20973;DHT22;10645;52.370;13.314;2022-10-12T00:54:26;1.90;99.90
20973;DHT22;10645;52.370;13.314;2022-10-12T00:56:55;1.90;99.90
20973;DHT22;10645;52.370;13.314;2022-10-12T00:59:26;1.80;99.90
20973;DHT22;10645;52.370;13.314;2022-10-12T01:01:54;1.80;99.90
20973;DHT22;10645;52.370;13.314;2022-10-12T01:04:21;1.80;99.90
20973;DHT22;10645;52.370;13.314;2022-10-12T01:06:49;1.70;99.90
20973;DHT22;10645;52.370;13.314;2022-10-12T01:09:15;1.70;99.90
20973;DHT22;10645;52.370;13.314;2022-10-12T01:11:41;1.70;99.90
20973;DHT22;10645;52.370;13.314;2022-10-12T01:14:07;1.70;99.90
20973;DHT22;10645;52.370;13.314;2022-10-12T01:16:53;1.60;99.90
20973;DHT22;10645;52.370;13.314;2022-10-12T01:22:04;1.60;99.90
20973;DHT22;10645;52.370;13.314;2022-10-12T01:30:18;1.60;99.90
20973;DHT22;10645;52.370;13.314;2022-10-12T01:37:56;1.50;99.90
20973;DHT22;10645;52.370;13.314;2022-10-12T01:40:34;1.50;99.90
20973;DHT22;10645;52.370;13.314;2022-10-12T01:43:02;1.50;99.90
20973;DHT22;10645;52.370;13.314;2022-10-12T01:45:28;1.50;99.90
20973;DHT22;10645;52.370;13.314;2022-10-12T01:47:54;1.50;99.90
20973;DHT22;10645;52.370;13.314;2022-10-12T01:50:23;1.50;99.90
20973;DHT22;10645;52.370;13.314;2022-10-12T01:55:48;1.40;99.90
20973;DHT22;10645;52.370;13.314;2022-10-12T01:58:22;1.40;99.90
20973;DHT22;10645;52.370;13.314;2022-10-12T02:01:08;1.40;99.90
20973;DHT22;10645;52.370;13.314;2022-10-12T02:03:42;1.40;99.90
20973;DHT22;10645;52.370;13.314;2022-10-12T02:06:14;1.30;99.90
20973;DHT22;10645;52.370;13.314;2022-10-12T02:11:20;1.30;99.90
20973;DHT22;10645;52.370;13.314;2022-10-12T02:13:51;1.30;99.90
20973;DHT22;10645;52.370;13.314;2022-10-12T02:16:22;1.30;99.90
20973;DHT22;10645;52.370;13.314;2022-10-12T02:18:53;1.40;99.90
20973;DHT22;10645;52.370;13.314;2022-10-12T02:21:24;1.40;99.90
20973;DHT22;10645;52.370;13.314;2022-10-12T02:23:53;1.40;99.90
20973;DHT22;10645;52.370;13.314;2022-10-12T02:26:21;1.50;99.90
20973;DHT22;10645;52.370;13.314;2022-10-12T02:28:48;1.50;99.90
20973;DHT22;10645;52.370;13.314;2022-10-12T02:31:41;1.40;99.90
20973;DHT22;10645;52.370;13.314;2022-10-12T02:34:19;1.40;99.90
20973;DHT22;10645;52.370;13.314;2022-10-12T02:39:50;1.30;99.90
20973;DHT22;10645;52.370;13.314;2022-10-12T02:42:24;1.30;99.90
20973;DHT22;10645;52.370;13.314;2022-10-12T02:44:53;1.30;99.90
20973;DHT22;10645;52.370;13.314;2022-10-12T02:47:20;1.20;99.90
20973;DHT22;10645;52.370;13.314;2022-10-12T02:49:48;1.20;99.90
20973;DHT22;10645;52.370;13.314;2022-10-12T02:52:15;1.20;99.90
20973;DHT22;10645;52.370;13.314;2022-10-12T02:54:41;1.20;99.90
20973;DHT22;10645;52.370;13.314;2022-10-12T02:57:07;1.20;99.90
20973;DHT22;10645;52.370;13.314;2022-10-12T02:59:33;1.20;99.90
20973;DHT22;10645;52.370;13.314;2022-10-12T03:01:59;1.10;99.90
20973;DHT22;10645;52.370;13.314;2022-10-12T03:04:25;1.10;99.90
20973;DHT22;10645;52.370;13.314;2022-10-12T03:06:51;1.10;99.90
20973;DHT22;10645;52.370;13.314;2022-10-12T03:09:18;1.10;99.90
20973;DHT22;10645;52.370;13.314;2022-10-12T03:11:44;1.10;99.90
20973;DHT22;10645;52.370;13.314;2022-10-12T03:14:11;1.10;99.90
20973;DHT22;10645;52.370;13.314;2022-10-12T03:16:37;1.10;99.90
20973;DHT22;10645;52.370;13.314;2022-10-12T03:19:03;1.00;99.90
20973;DHT22;10645;52.370;13.314;2022-10-12T03:21:29;1.10;99.90
20973;DHT22;10645;52.370;13.314;2022-10-12T03:23:55;1.10;99.90
20973;DHT22;10645;52.370;13.314;2022-10-12T03:26:22;1.10;99.90
20973;DHT22;10645;52.370;13.314;2022-10-12T03:28:48;1.00;99.90
20973;DHT22;10645;52.370;13.314;2022-10-12T03:31:14;1.00;99.90
20973;DHT22;10645;52.370;13.314;2022-10-12T03:33:40;0.90;99.90
20973;DHT22;10645;52.370;13.314;2022-10-12T03:36:06;0.90;99.90
20973;DHT22;10645;52.370;13.314;2022-10-12T03:38:32;0.90;99.90
20973;DHT22;10645;52.370;13.314;2022-10-12T03:40:59;0.90;99.90
20973;DHT22;10645;52.370;13.314;2022-10-12T03:43:25;0.80;99.90
20973;DHT22;10645;52.370;13.314;2022-10-12T03:45:51;0.80;99.90
20973;DHT22;10645;52.370;13.314;2022-10-12T03:48:17;0.80;99.90
20973;DHT22;10645;52.370;13.314;2022-10-12T03:50:48;0.90;99.90
20973;DHT22;10645;52.370;13.314;2022-10-12T03:53:14;0.80;99.90
20973;DHT22;10645;52.370;13.314;2022-10-12T03:55:40;0.90;99.90
20973;DHT22;10645;52.370;13.314;2022-10-12T03:58:06;0.90;99.90
20973;DHT22;10645;52.370;13.314;2022-10-12T04:00:32;0.90;99.90
20973;DHT22;10645;52.370;13.314;2022-10-12T04:02:59;1.00;99.90
20973;DHT22;10645;52.370;13.314;2022-10-12T04:05:28;1.00;99.90
20973;DHT22;10645;52.370;13.314;2022-10-12T04:07:54;0.90;99.90
20973;DHT22;10645;52.370;13.314;2022-10-12T04:10:20;0.80;99.90
20973;DHT22;10645;52.370;13.314;2022-10-12T04:12:46;0.70;99.90
20973;DHT22;10645;52.370;13.314;2022-10-12T04:15:12;0.70;99.90
20973;DHT22;10645;52.370;13.314;2022-10-12T04:17:39;0.70;99.90
20973;DHT22;10645;52.370;13.314;2022-10-12T04:20:06;0.70;99.90
20973;DHT22;10645;52.370;13.314;2022-10-12T04:22:32;0.70;99.90
20973;DHT22;10645;52.370;13.314;2022-10-12T04:24:58;0.60;99.90
20973;DHT22;10645;52.370;13.314;2022-10-12T04:27:24;0.60;99.90
20973;DHT22;10645;52.370;13.314;2022-10-12T04:29:50;0.70;99.90
20973;DHT22;10645;52.370;13.314;2022-10-12T04:32:17;0.70;99.90
20973;DHT22;10645;52.370;13.314;2022-10-12T04:34:43;0.60;99.90
20973;DHT22;10645;52.370;13.314;2022-10-12T04:37:09;0.50;99.90
20973;DHT22;10645;52.370;13.314;2022-10-12T04:39:35;0.50;99.90
20973;DHT22;10645;52.370;13.314;2022-10-12T04:42:02;0.40;99.90
20973;DHT22;10645;52.370;13.314;2022-10-12T04:44:28;0.40;99.90
20973;DHT22;10645;52.370;13.314;2022-10-12T04:46:54;0.50;99.90
20973;DHT22;10645;52.370;13.314;2022-10-12T04:49:20;0.50;99.90
20973;DHT22;10645;52.370;13.314;2022-10-12T04:51:46;0.50;99.90
20973;DHT22;10645;52.370;13.314;2022-10-12T04:54:12;0.50;99.90
20973;DHT22;10645;52.370;13.314;2022-10-12T04:56:38;0.50;99.90
20973;DHT22;10645;52.370;13.314;2022-10-12T04:59:04;0.50;99.90
20973;DHT22;10645;52.370;13.314;2022-10-12T05:01:30;0.50;99.90
20973;DHT22;10645;52.370;13.314;2022-10-12T05:03:56;0.50;99.90
20973;DHT22;10645;52.370;13.314;2022-10-12T05:06:22;0.40;99.90
20973;DHT22;10645;52.370;13.314;2022-10-12T05:08:48;0.40;99.90
20973;DHT22;10645;52.370;13.314;2022-10-12T05:11:14;0.40;99.90
20973;DHT22;10645;52.370;13.314;2022-10-12T05:13:40;0.40;99.90
20973;DHT22;10645;52.370;13.314;2022-10-12T05:16:06;0.40;99.90
20973;DHT22;10645;52.370;13.314;2022-10-12T05:18:33;0.30;99.90
20973;DHT22;10645;52.370;13.314;2022-10-12T05:20:59;0.30;99.90
20973;DHT22;10645;52.370;13.314;2022-10-12T05:23:25;0.30;99.90
20973;DHT22;10645;52.370;13.314;2022-10-12T05:25:54;0.40;99.90
20973;DHT22;10645;52.370;13.314;2022-10-12T05:28:20;0.40;99.90
20973;DHT22;10645;52.370;13.314;2022-10-12T05:30:50;0.40;99.90
20973;DHT22;10645;52.370;13.314;2022-10-12T05:33:17;0.30;99.90
20973;DHT22;10645;52.370;13.314;2022-10-12T05:35:43;0.30;99.90
20973;DHT22;10645;52.370;13.314;2022-10-12T05:38:10;0.30;99.90
20973;DHT22;10645;52.370;13.314;2022-10-12T05:40:36;0.30;99.90
20973;DHT22;10645;52.370;13.314;2022-10-12T05:43:02;0.40;99.90
20973;DHT22;10645;52.370;13.314;2022-10-12T05:45:28;0.40;99.90
20973;DHT22;10645;52.370;13.314;2022-10-12T05:47:54;0.50;99.90
20973;DHT22;10645;52.370;13.314;2022-10-12T05:50:20;0.50;99.90
20973;DHT22;10645;52.370;13.314;2022-10-12T05:52:47;0.60;99.90
20973;DHT22;10645;52.370;13.314;2022-10-12T05:55:13;0.50;99.90
20973;DHT22;10645;52.370;13.314;2022-10-12T05:57:39;0.60;99.90
20973;DHT22;10645;52.370;13.314;2022-10-12T06:00:06;0.70;99.90
20973;DHT22;10645;52.370;13.314;2022-10-12T06:02:35;0.80;99.90
20973;DHT22;10645;52.370;13.314;2022-10-12T06:05:02;0.80;99.90
20973;DHT22;10645;52.370;13.314;2022-10-12T06:07:28;0.90;99.90
20973;DHT22;10645;52.370;13.314;2022-10-12T06:09:54;0.90;99.90
20973;DHT22;10645;52.370;13.314;2022-10-12T06:12:20;1.00;99.90
20973;DHT22;10645;52.370;13.314;2022-10-12T06:14:46;1.00;99.90
20973;DHT22;10645;52.370;13.314;2022-10-12T06:17:12;1.10;99.90
20973;DHT22;10645;52.370;13.314;2022-10-12T06:19:38;1.30;99.90
20973;DHT22;10645;52.370;13.314;2022-10-12T06:22:04;1.40;99.90
20973;DHT22;10645;52.370;13.314;2022-10-12T06:24:30;1.50;99.90
20973;DHT22;10645;52.370;13.314;2022-10-12T06:26:56;1.50;99.90
20973;DHT22;10645;52.370;13.314;2022-10-12T06:29:22;1.60;99.90
20973;DHT22;10645;52.370;13.314;2022-10-12T06:31:50;1.70;99.90
20973;DHT22;10645;52.370;13.314;2022-10-12T06:34:17;1.80;99.90
20973;DHT22;10645;52.370;13.314;2022-10-12T06:36:43;1.90;99.90
20973;DHT22;10645;52.370;13.314;2022-10-12T06:39:09;2.10;99.90
20973;DHT22;10645;52.370;13.314;2022-10-12T06:41:35;2.20;99.90
20973;DHT22;10645;52.370;13.314;2022-10-12T06:44:07;2.30;99.90
20973;DHT22;10645;52.370;13.314;2022-10-12T06:46:33;2.50;99.90
20973;DHT22;10645;52.370;13.314;2022-10-12T06:48:59;2.70;99.90
20973;DHT22;10645;52.370;13.314;2022-10-12T06:51:25;2.90;99.90
20973;DHT22;10645;52.370;13.314;2022-10-12T06:53:54;3.00;99.90
20973;DHT22;10645;52.370;13.314;2022-10-12T06:56:21;3.20;99.90
20973;DHT22;10645;52.370;13.314;2022-10-12T06:58:53;3.40;99.90
20973;DHT22;10645;52.370;13.314;2022-10-12T07:01:19;3.60;99.90
20973;DHT22;10645;52.370;13.314;2022-10-12T07:03:45;3.80;99.90
20973;DHT22;10645;52.370;13.314;2022-10-12T07:06:12;4.00;99.90
20973;DHT22;10645;52.370;13.314;2022-10-12T07:08:40;4.20;99.90
20973;DHT22;10645;52.370;13.314;2022-10-12T07:11:08;4.40;99.90
20973;DHT22;10645;52.370;13.314;2022-10-12T07:13:35;4.70;99.90
20973;DHT22;10645;52.370;13.314;2022-10-12T07:16:01;4.90;99.90
20973;DHT22;10645;52.370;13.314;2022-10-12T07:18:27;5.10;99.90
20973;DHT22;10645;52.370;13.314;2022-10-12T07:20:56;5.30;99.90
20973;DHT22;10645;52.370;13.314;2022-10-12T07:23:23;5.50;99.90
20973;DHT22;10645;52.370;13.314;2022-10-12T07:25:49;5.70;99.90
20973;DHT22;10645;52.370;13.314;2022-10-12T07:28:16;5.80;99.90
20973;DHT22;10645;52.370;13.314;2022-10-12T07:30:43;6.00;99.90
20973;DHT22;10645;52.370;13.314;2022-10-12T07:33:09;6.20;99.90
20973;DHT22;10645;52.370;13.314;2022-10-12T07:35:35;6.30;99.90
20973;DHT22;10645;52.370;13.314;2022-10-12T07:38:02;6.60;99.90
20973;DHT22;10645;52.370;13.314;2022-10-12T07:40:28;6.70;99.90
20973;DHT22;10645;52.370;13.314;2022-10-12T07:42:54;6.90;99.90
20973;DHT22;10645;52.370;13.314;2022-10-12T07:45:21;7.10;99.90
20973;DHT22;10645;52.370;13.314;2022-10-12T07:47:47;7.20;99.90
20973;DHT22;10645;52.370;13.314;2022-10-12T07:50:13;7.40;99.90
20973;DHT22;10645;52.370;13.314;2022-10-12T07:52:39;7.50;99.90
20973;DHT22;10645;52.370;13.314;2022-10-12T07:55:06;7.70;99.90
20973;DHT22;10645;52.370;13.314;2022-10-12T07:57:32;7.90;99.90
20973;DHT22;10645;52.370;13.314;2022-10-12T07:59:58;8.10;99.90
20973;DHT22;10645;52.370;13.314;2022-10-12T08:02:25;8.30;99.90
20973;DHT22;10645;52.370;13.314;2022-10-12T08:04:51;8.40;99.90
20973;DHT22;10645;52.370;13.314;2022-10-12T08:07:17;8.50;99.90
20973;DHT22;10645;52.370;13.314;2022-10-12T08:09:43;8.60;99.90
20973;DHT22;10645;52.370;13.314;2022-10-12T08:12:10;8.80;99.90
20973;DHT22;10645;52.370;13.314;2022-10-12T08:14:36;8.90;99.90
20973;DHT22;10645;52.370;13.314;2022-10-12T08:17:02;9.10;99.90
20973;DHT22;10645;52.370;13.314;2022-10-12T08:19:30;9.30;99.90
20973;DHT22;10645;52.370;13.314;2022-10-12T08:21:56;9.50;99.90
20973;DHT22;10645;52.370;13.314;2022-10-12T08:24:22;9.60;99.90
20973;DHT22;10645;52.370;13.314;2022-10-12T08:26:48;9.80;99.90
20973;DHT22;10645;52.370;13.314;2022-10-12T08:29:14;10.00;99.90
20973;DHT22;10645;52.370;13.314;2022-10-12T08:31:40;10.10;99.90
20973;DHT22;10645;52.370;13.314;2022-10-12T08:34:06;10.30;99.90
20973;DHT22;10645;52.370;13.314;2022-10-12T08:36:33;10.40;99.90
20973;DHT22;10645;52.370;13.314;2022-10-12T08:38:59;10.50;99.90
20973;DHT22;10645;52.370;13.314;2022-10-12T08:41:42;10.70;99.90
20973;DHT22;10645;52.370;13.314;2022-10-12T08:44:52;10.90;99.90
20973;DHT22;10645;52.370;13.314;2022-10-12T08:47:43;11.10;99.90
20973;DHT22;10645;52.370;13.314;2022-10-12T08:50:32;11.20;99.90
20973;DHT22;10645;52.370;13.314;2022-10-12T08:53:15;11.40;99.90
20973;DHT22;10645;52.370;13.314;2022-10-12T08:55:45;11.60;99.90
20973;DHT22;10645;52.370;13.314;2022-10-12T08:58:17;11.70;99.90
20973;DHT22;10645;52.370;13.314;2022-10-12T09:01:11;11.80;99.90
20973;DHT22;10645;52.370;13.314;2022-10-12T09:04:16;11.90;99.90
20973;DHT22;10645;52.370;13.314;2022-10-12T09:06:49;12.10;99.90
20973;DHT22;10645;52.370;13.314;2022-10-12T09:09:32;12.20;99.90
20973;DHT22;10645;52.370;13.314;2022-10-12T09:12:31;12.40;99.90
20973;DHT22;10645;52.370;13.314;2022-10-12T09:15:07;12.50;99.90
20973;DHT22;10645;52.370;13.314;2022-10-12T09:17:38;12.70;99.90
20973;DHT22;10645;52.370;13.314;2022-10-12T09:22:44;12.90;99.90
20973;DHT22;10645;52.370;13.314;2022-10-12T09:25:14;13.00;99.90
20973;DHT22;10645;52.370;13.314;2022-10-12T09:27:43;13.00;99.90
20973;DHT22;10645;52.370;13.314;2022-10-12T09:30:15;13.20;99.90
20973;DHT22;10645;52.370;13.314;2022-10-12T09:32:54;13.40;99.90
20973;DHT22;10645;52.370;13.314;2022-10-12T09:35:21;13.40;99.90
20973;DHT22;10645;52.370;13.314;2022-10-12T09:37:51;13.40;99.90
20973;DHT22;10645;52.370;13.314;2022-10-12T09:40:28;13.40;99.90
20973;DHT22;10645;52.370;13.314;2022-10-12T09:42:58;13.60;99.90
20973;DHT22;10645;52.370;13.314;2022-10-12T09:45:25;13.70;99.90
20973;DHT22;10645;52.370;13.314;2022-10-12T09:53:54;13.80;99.90
20973;DHT22;10645;52.370;13.314;2022-10-12T09:56:12;13.90;99.90
20973;DHT22;10645;52.370;13.314;2022-10-12T09:58:52;13.90;99.90
20973;DHT22;10645;52.370;13.314;2022-10-12T10:01:27;14.00;99.90
20973;DHT22;10645;52.370;13.314;2022-10-12T10:04:21;14.10;99.90
20973;DHT22;10645;52.370;13.314;2022-10-12T10:06:48;14.20;99.90
20973;DHT22;10645;52.370;13.314;2022-10-12T10:09:31;14.30;99.90
20973;DHT22;10645;52.370;13.314;2022-10-12T10:12:28;14.40;99.90
20973;DHT22;10645;52.370;13.314;2022-10-12T10:14:56;14.40;99.90
20973;DHT22;10645;52.370;13.314;2022-10-12T10:17:31;14.50;99.90
20973;DHT22;10645;52.370;13.314;2022-10-12T10:20:02;14.50;99.90
20973;DHT22;10645;52.370;13.314;2022-10-12T10:22:29;14.60;99.90
20973;DHT22;10645;52.370;13.314;2022-10-12T10:24:57;14.70;99.90
20973;DHT22;10645;52.370;13.314;2022-10-12T10:27:38;14.80;99.90
20973;DHT22;10645;52.370;13.314;2022-10-12T10:30:19;14.80;99.90
20973;DHT22;10645;52.370;13.314;2022-10-12T10:32:46;14.90;99.90
20973;DHT22;10645;52.370;13.314;2022-10-12T10:37:54;15.00;99.90
20973;DHT22;10645;52.370;13.314;2022-10-12T10:40:26;15.10;99.90
20973;DHT22;10645;52.370;13.314;2022-10-12T10:42:58;15.20;99.90
20973;DHT22;10645;52.370;13.314;2022-10-12T10:45:33;15.20;99.90
20973;DHT22;10645;52.370;13.314;2022-10-12T10:48:08;15.20;99.90
20973;DHT22;10645;52.370;13.314;2022-10-12T10:50:43;15.20;99.90
20973;DHT22;10645;52.370;13.314;2022-10-12T10:53:17;15.30;99.90
20973;DHT22;10645;52.370;13.314;2022-10-12T10:55:55;15.40;99.90
20973;DHT22;10645;52.370;13.314;2022-10-12T10:58:43;15.50;99.90
20973;DHT22;10645;52.370;13.314;2022-10-12T11:01:31;15.60;99.90
20973;DHT22;10645;52.370;13.314;2022-10-12T11:04:05;15.80;99.90
20973;DHT22;10645;52.370;13.314;2022-10-12T11:06:41;15.80;99.90
20973;DHT22;10645;52.370;13.314;2022-10-12T11:09:19;15.90;99.90
20973;DHT22;10645;52.370;13.314;2022-10-12T11:12:23;16.00;99.90
20973;DHT22;10645;52.370;13.314;2022-10-12T11:14:47;16.20;99.90
20973;DHT22;10645;52.370;13.314;2022-10-12T11:17:26;16.20;99.90
20973;DHT22;10645;52.370;13.314;2022-10-12T11:20:49;16.30;99.90
20973;DHT22;10645;52.370;13.314;2022-10-12T11:23:03;16.40;99.90
20973;DHT22;10645;52.370;13.314;2022-10-12T11:25:42;16.40;99.90
20973;DHT22;10645;52.370;13.314;2022-10-12T11:28:14;16.40;99.90
20973;DHT22;10645;52.370;13.314;2022-10-12T11:30:44;16.30;99.90
20973;DHT22;10645;52.370;13.314;2022-10-12T11:33:17;16.10;99.90
20973;DHT22;10645;52.370;13.314;2022-10-12T11:35:47;15.90;99.90
20973;DHT22;10645;52.370;13.314;2022-10-12T11:38:31;15.90;99.90
20973;DHT22;10645;52.370;13.314;2022-10-12T11:41:02;16.10;99.90
20973;DHT22;10645;52.370;13.314;2022-10-12T11:43:36;16.20;99.90
20973;DHT22;10645;52.370;13.314;2022-10-12T11:46:06;16.30;99.90
20973;DHT22;10645;52.370;13.314;2022-10-12T11:48:42;16.20;99.90
20973;DHT22;10645;52.370;13.314;2022-10-12T11:51:11;16.00;99.90
20973;DHT22;10645;52.370;13.314;2022-10-12T11:54:00;16.00;99.90
20973;DHT22;10645;52.370;13.314;2022-10-12T11:56:36;16.10;99.90
20973;DHT22;10645;52.370;13.314;2022-10-12T11:59:33;16.20;99.90
20973;DHT22;10645;52.370;13.314;2022-10-12T12:04:44;16.10;99.90
20973;DHT22;10645;52.370;13.314;2022-10-12T12:18:17;15.90;99.90
20973;DHT22;10645;52.370;13.314;2022-10-12T12:23:25;15.50;99.90
20973;DHT22;10645;52.370;13.314;2022-10-12T12:31:16;15.60;99.90
20973;DHT22;10645;52.370;13.314;2022-10-12T12:34:02;15.50;99.90
20973;DHT22;10645;52.370;13.314;2022-10-12T12:36:35;15.50;99.90
20973;DHT22;10645;52.370;13.314;2022-10-12T12:39:05;15.40;99.90
20973;DHT22;10645;52.370;13.314;2022-10-12T12:42:03;15.50;99.90
20973;DHT22;10645;52.370;13.314;2022-10-12T12:49:43;15.50;99.90
20973;DHT22;10645;52.370;13.314;2022-10-12T12:52:25;15.50;99.90
20973;DHT22;10645;52.370;13.314;2022-10-12T12:58:05;15.40;99.90
20973;DHT22;10645;52.370;13.314;2022-10-12T13:00:49;15.30;99.90
20973;DHT22;10645;52.370;13.314;2022-10-12T13:06:25;15.20;99.90
20973;DHT22;10645;52.370;13.314;2022-10-12T13:09:19;15.20;99.90
20973;DHT22;10645;52.370;13.314;2022-10-12T13:14:56;15.20;99.90
20973;DHT22;10645;52.370;13.314;2022-10-12T13:20:31;15.20;99.90
20973;DHT22;10645;52.370;13.314;2022-10-12T13:22:58;15.10;99.90
20973;DHT22;10645;52.370;13.314;2022-10-12T13:25:47;15.10;99.90
20973;DHT22;10645;52.370;13.314;2022-10-12T13:28:31;15.00;99.90
20973;DHT22;10645;52.370;13.314;2022-10-12T13:31:03;14.90;99.90
20973;DHT22;10645;52.370;13.314;2022-10-12T13:33:48;14.90;99.90
20973;DHT22;10645;52.370;13.314;2022-10-12T13:36:29;14.90;99.90
20973;DHT22;10645;52.370;13.314;2022-10-12T13:41:59;14.90;99.90
20973;DHT22;10645;52.370;13.314;2022-10-12T13:44:31;14.80;99.90
20973;DHT22;10645;52.370;13.314;2022-10-12T13:47:01;14.70;99.90
20973;DHT22;10645;52.370;13.314;2022-10-12T13:49:34;14.70;99.90
20973;DHT22;10645;52.370;13.314;2022-10-12T13:54:39;14.70;99.90
20973;DHT22;10645;52.370;13.314;2022-10-12T13:59:44;14.60;99.90
20973;DHT22;10645;52.370;13.314;2022-10-12T14:02:21;14.60;99.90
20973;DHT22;10645;52.370;13.314;2022-10-12T14:04:52;14.50;99.90
20973;DHT22;10645;52.370;13.314;2022-10-12T14:07:33;14.50;99.90
20973;DHT22;10645;52.370;13.314;2022-10-12T14:10:11;14.40;99.90
20973;DHT22;10645;52.370;13.314;2022-10-12T14:12:42;14.30;99.90
20973;DHT22;10645;52.370;13.314;2022-10-12T14:15:11;14.30;99.90
20973;DHT22;10645;52.370;13.314;2022-10-12T14:17:43;14.20;99.90
20973;DHT22;10645;52.370;13.314;2022-10-12T14:20:25;14.20;99.90
